Time;durP1;ratioP1;P1;durP2;ratioP2;P2;SDS_P1;SDS_P2;PMS_P1;PMS_P2;Temp;Humidity;BMP_temperature;BMP_pressure;BME280_temperature;BME280_humidity;BME280_pressure;Samples;Min_cycle;Max_cycle;Signal;HPM_P1;HPM_P2
2022/02/08 00:00:03;;;;;;;16.60;3.87;;;2.60;99.90;;;;;;4454187;32;20174;-67
2022/02/08 00:02:33;;;;;;;15.30;4.10;;;2.50;99.90;;;;;;4453795;32;20169;-67
2022/02/08 00:05:01;;;;;;;15.63;4.03;;;2.50;99.90;;;;;;4453741;32;20178;-67
2022/02/08 00:07:30;;;;;;;12.00;4.00;;;2.50;99.90;;;;;;4455016;32;20170;-66
2022/02/08 00:09:57;;;;;;;22.63;4.03;;;2.40;99.90;;;;;;4454905;32;20142;-67
2022/02/08 00:12:24;;;;;;;17.03;4.13;;;2.40;99.90;;;;;;4453711;32;20177;-68
2022/02/08 00:14:52;;;;;;;12.07;3.97;;;2.40;99.90;;;;;;4453832;32;20236;-67
2022/02/08 00:17:19;;;;;;;17.10;4.67;;;2.30;99.90;;;;;;4456213;32;20213;-67
2022/02/08 00:19:46;;;;;;;17.63;4.43;;;2.30;99.90;;;;;;4454656;32;20178;-66
2022/02/08 00:22:13;;;;;;;17.73;4.30;;;2.40;99.90;;;;;;4454257;32;20177;-67
2022/02/08 00:24:40;;;;;;;17.47;4.43;;;2.30;99.90;;;;;;4441275;32;20201;-67
2022/02/08 00:27:07;;;;;;;15.67;4.03;;;2.30;99.90;;;;;;4455441;32;20174;-68
2022/02/08 00:29:34;;;;;;;18.97;3.93;;;2.30;99.90;;;;;;4455684;32;20166;-67
2022/02/08 00:32:01;;;;;;;16.03;4.00;;;2.30;99.90;;;;;;4453362;32;20278;-67
2022/02/08 00:34:28;;;;;;;16.37;4.13;;;2.30;99.90;;;;;;4453778;32;20197;-67
2022/02/08 00:36:55;;;;;;;15.80;3.83;;;2.30;99.90;;;;;;4449796;32;20187;-67
2022/02/08 00:39:23;;;;;;;18.50;3.70;;;2.40;99.90;;;;;;4441513;32;20174;-67
2022/02/08 00:41:50;;;;;;;19.57;3.83;;;2.40;99.90;;;;;;4454132;32;20189;-67
2022/02/08 00:44:23;;;;;;;15.50;3.83;;;2.40;99.90;;;;;;4453595;32;20201;-67
2022/02/08 00:46:59;;;;;;;20.30;4.13;;;2.40;99.90;;;;;;4453608;32;20222;-67
2022/02/08 00:49:32;;;;;;;21.07;4.17;;;2.40;99.90;;;;;;4455380;32;20213;-67
2022/02/08 00:52:06;;;;;;;13.77;4.03;;;2.40;99.90;;;;;;4453755;32;20177;-67
2022/02/08 00:54:33;;;;;;;15.57;3.87;;;2.50;99.90;;;;;;4455010;32;20195;-67
2022/02/08 00:57:00;;;;;;;16.17;4.40;;;2.50;99.90;;;;;;4446315;32;20212;-67
2022/02/08 00:59:27;;;;;;;17.50;4.00;;;2.50;99.90;;;;;;4443876;32;20179;-67
2022/02/08 01:01:54;;;;;;;17.60;4.20;;;2.50;99.90;;;;;;4438006;32;20206;-67
2022/02/08 01:04:23;;;;;;;19.30;5.00;;;2.50;99.90;;;;;;4441325;32;20200;-67
2022/02/08 01:06:51;;;;;;;19.83;4.83;;;2.50;99.90;;;;;;4439730;32;20182;-67
2022/02/08 01:09:23;;;;;;;17.00;4.63;;;2.40;99.90;;;;;;4438305;32;20175;-67
2022/02/08 01:11:53;;;;;;;17.93;4.07;;;2.40;99.90;;;;;;4438185;32;20178;-67
2022/02/08 01:14:22;;;;;;;19.17;4.20;;;2.50;99.90;;;;;;4439779;32;20146;-67
2022/02/08 01:16:51;;;;;;;20.03;4.20;;;2.50;99.90;;;;;;4440324;32;20177;-68
2022/02/08 01:19:20;;;;;;;21.63;4.43;;;2.50;99.90;;;;;;4438178;32;20232;-67
2022/02/08 01:21:47;;;;;;;19.30;5.13;;;2.40;99.90;;;;;;4438564;32;20197;-67
2022/02/08 01:24:14;;;;;;;20.43;4.93;;;2.40;99.90;;;;;;4439151;32;20186;-67
2022/02/08 01:26:54;;;;;;;16.60;4.67;;;2.50;99.90;;;;;;4446610;32;20218;-67
2022/02/08 01:29:35;;;;;;;20.47;4.80;;;2.50;99.90;;;;;;4441889;32;20224;-67
2022/02/08 01:32:34;;;;;;;21.97;4.53;;;2.50;99.90;;;;;;4440565;32;20200;-67
2022/02/08 01:49:14;;;;;;;24.53;4.50;;;2.50;99.90;;;;;;4278150;33;20186;-67
2022/02/08 01:51:41;;;;;;;20.63;4.60;;;2.50;99.90;;;;;;4276444;33;20276;-67
2022/02/08 01:54:08;;;;;;;17.77;4.30;;;2.50;99.90;;;;;;4276304;33;20219;-67
2022/02/08 01:56:35;;;;;;;14.53;4.30;;;2.50;99.90;;;;;;4278845;33;20241;-67
2022/02/08 01:59:03;;;;;;;18.20;4.50;;;2.50;99.90;;;;;;4280841;33;20425;-67
2022/02/08 02:01:30;;;;;;;17.93;4.50;;;2.50;99.90;;;;;;4278286;33;20463;-67
2022/02/08 02:03:56;;;;;;;21.23;4.27;;;2.50;99.90;;;;;;4278626;33;20169;-67
2022/02/08 02:06:39;;;;;;;18.37;4.10;;;2.50;99.90;;;;;;4291319;33;20178;-67
2022/02/08 02:09:07;;;;;;;26.03;4.50;;;2.50;99.90;;;;;;4291802;33;20197;-67
2022/02/08 02:11:34;;;;;;;18.10;4.47;;;2.50;99.90;;;;;;4292312;33;20201;-67
2022/02/08 02:14:01;;;;;;;16.13;3.77;;;2.50;99.90;;;;;;4297740;33;20239;-67
2022/02/08 02:16:50;;;;;;;20.70;4.87;;;2.60;99.90;;;;;;4348138;33;20251;-67
2022/02/08 02:19:15;;;;;;;20.00;4.37;;;2.60;99.90;;;;;;4380073;32;20159;-67
2022/02/08 02:21:42;;;;;;;15.33;3.93;;;2.50;99.90;;;;;;4412435;32;20229;-67
2022/02/08 02:24:09;;;;;;;17.63;3.43;;;2.50;99.90;;;;;;4411763;32;20450;-67
2022/02/08 02:26:36;;;;;;;18.00;4.00;;;2.60;99.90;;;;;;4426002;32;20243;-67
2022/02/08 02:29:03;;;;;;;22.00;5.10;;;2.60;99.90;;;;;;4412690;32;20512;-67
2022/02/08 02:31:30;;;;;;;14.33;3.70;;;2.60;99.90;;;;;;4412537;32;20243;-67
2022/02/08 02:33:57;;;;;;;23.47;4.30;;;2.60;99.90;;;;;;4411682;32;20178;-67
2022/02/08 02:36:24;;;;;;;18.37;4.10;;;2.60;99.90;;;;;;4426329;32;20173;-67
2022/02/08 02:38:52;;;;;;;17.73;3.97;;;2.70;99.90;;;;;;4414006;32;20278;-67
2022/02/08 02:41:19;;;;;;;21.27;4.10;;;2.70;99.90;;;;;;4413164;32;20178;-67
2022/02/08 02:43:46;;;;;;;18.70;4.10;;;2.70;99.90;;;;;;4411661;32;20197;-68
2022/02/08 02:46:13;;;;;;;19.17;4.20;;;2.70;99.90;;;;;;4426506;32;20146;-67
2022/02/08 02:48:40;;;;;;;20.40;3.90;;;2.70;99.90;;;;;;4425876;32;20478;-67
2022/02/08 02:51:12;;;;;;;13.90;3.87;;;2.70;99.90;;;;;;4399467;32;20195;-67
2022/02/08 02:53:39;;;;;;;17.83;3.87;;;2.70;99.90;;;;;;4411280;32;20189;-67
2022/02/08 02:56:06;;;;;;;16.07;3.47;;;2.70;99.90;;;;;;4426586;32;20507;-67
2022/02/08 02:58:35;;;;;;;16.23;3.73;;;2.70;99.90;;;;;;4425584;32;20177;-67
2022/02/08 03:01:27;;;;;;;19.43;3.63;;;2.70;99.90;;;;;;4414930;32;20187;-67
2022/02/08 03:04:08;;;;;;;22.27;3.87;;;2.70;99.90;;;;;;4439459;32;20181;-67
2022/02/08 03:20:08;;;;;;;14.20;3.90;;;2.70;99.90;;;;;;4439629;32;20185;-67
2022/02/08 03:22:35;;;;;;;21.77;4.30;;;2.70;99.90;;;;;;4440029;32;20178;-67
2022/02/08 03:25:02;;;;;;;19.03;4.23;;;2.80;99.90;;;;;;4439249;32;20225;-67
2022/02/08 03:27:29;;;;;;;12.87;4.00;;;2.70;99.90;;;;;;4440055;32;20426;-67
2022/02/08 03:29:56;;;;;;;16.53;3.83;;;2.80;99.90;;;;;;4439032;32;20197;-67
2022/02/08 03:32:23;;;;;;;20.57;4.20;;;2.70;99.90;;;;;;4441512;32;20151;-67
2022/02/08 03:34:51;;;;;;;14.73;3.63;;;2.80;99.90;;;;;;4440297;32;20165;-67
2022/02/08 03:37:18;;;;;;;11.80;3.63;;;2.70;99.90;;;;;;4440849;32;20547;-67
2022/02/08 03:39:55;;;;;;;14.83;4.10;;;2.70;99.90;;;;;;4440359;32;20162;-66
2022/02/08 03:42:29;;;;;;;15.97;3.60;;;2.80;99.90;;;;;;4439782;32;20174;-66
2022/02/08 03:44:57;;;;;;;14.13;3.50;;;2.80;99.90;;;;;;4439178;32;20185;-67
2022/02/08 03:47:25;;;;;;;11.87;3.80;;;2.80;99.90;;;;;;4439691;32;20166;-66
2022/02/08 03:49:52;;;;;;;15.93;4.27;;;2.80;99.90;;;;;;4439935;32;20210;-67
2022/02/08 03:52:23;;;;;;;16.30;3.83;;;2.80;99.90;;;;;;4439538;32;20179;-67
2022/02/08 03:54:50;;;;;;;14.77;3.93;;;2.80;99.90;;;;;;4439695;32;20445;-66
2022/02/08 03:57:17;;;;;;;20.97;4.20;;;2.80;99.90;;;;;;4439017;32;20516;-67
2022/02/08 03:59:44;;;;;;;15.23;4.30;;;2.80;99.90;;;;;;4440258;32;20463;-67
2022/02/08 04:07:19;;;;;;;11.20;3.50;;;2.80;99.90;;;;;;4439129;32;20483;-67
2022/02/08 04:09:57;;;;;;;16.57;3.97;;;2.80;99.90;;;;;;4439869;32;20166;-67
2022/02/08 04:12:49;;;;;;;15.47;4.17;;;2.80;99.90;;;;;;4441781;32;20156;-67
2022/02/08 04:37:44;;;;;;;14.73;3.63;;;2.70;99.90;;;;;;4440359;32;20169;-67
2022/02/08 04:42:40;;;;;;;13.07;3.63;;;2.80;99.90;;;;;;4439056;32;20194;-67
2022/02/08 04:46:14;;;;;;;9.83;3.07;;;2.70;99.90;;;;;;4439038;32;20181;-67
2022/02/08 04:48:20;;;;;;;10.60;2.97;;;2.70;99.90;;;;;;4428838;32;20174;-67
2022/02/08 04:50:49;;;;;;;8.93;2.77;;;2.80;99.90;;;;;;4437976;32;20170;-67
2022/02/08 04:53:28;;;;;;;7.60;2.53;;;2.80;99.90;;;;;;4440019;32;20435;-67
2022/02/08 04:56:05;;;;;;;6.80;2.30;;;2.80;99.90;;;;;;4438062;32;20200;-67
2022/02/08 04:58:48;;;;;;;5.93;2.00;;;2.80;99.90;;;;;;4437993;32;20559;-67
2022/02/08 05:26:55;;;;;;;15.20;3.20;;;3.00;99.90;;;;;;4423234;32;20375;-67
2022/02/08 05:43:03;;;;;;;14.30;4.10;;;2.90;99.90;;;;;;4437961;32;20208;-67
2022/02/08 05:45:35;;;;;;;9.33;4.00;;;2.80;99.90;;;;;;4438295;32;20278;-67
2022/02/08 05:48:07;;;;;;;14.10;3.93;;;2.80;99.90;;;;;;4438228;32;20158;-67
2022/02/08 05:55:50;;;;;;;11.17;3.60;;;2.70;99.90;;;;;;4440483;32;20142;-67
2022/02/08 05:58:16;;;;;;;14.20;4.03;;;2.60;99.90;;;;;;4437297;32;20234;-67
2022/02/08 06:00:45;;;;;;;9.63;3.70;;;2.60;99.90;;;;;;4438131;32;20201;-68
2022/02/08 06:03:11;;;;;;;11.63;3.53;;;2.50;99.90;;;;;;4439137;32;20185;-67
2022/02/08 06:05:39;;;;;;;16.23;3.83;;;2.40;99.90;;;;;;4437233;32;20525;-67
2022/02/08 06:08:06;;;;;;;12.90;3.30;;;2.40;99.90;;;;;;4439225;32;20166;-67
2022/02/08 06:10:38;;;;;;;8.80;3.03;;;2.40;99.90;;;;;;4437970;32;20182;-68
2022/02/08 06:13:05;;;;;;;11.57;3.10;;;2.40;99.90;;;;;;4440645;32;20134;-67
2022/02/08 06:15:34;;;;;;;13.87;3.17;;;2.30;99.90;;;;;;4441217;32;20237;-67
2022/02/08 06:18:02;;;;;;;11.43;2.90;;;2.20;99.90;;;;;;4440419;32;20181;-68
2022/02/08 06:20:29;;;;;;;11.90;3.43;;;2.30;99.90;;;;;;4441348;32;20194;-68
2022/02/08 06:22:56;;;;;;;15.60;3.50;;;2.20;99.90;;;;;;4440565;32;20196;-67
2022/02/08 06:25:23;;;;;;;12.87;3.57;;;2.20;99.90;;;;;;4440316;32;20198;-67
2022/02/08 06:27:51;;;;;;;16.40;3.60;;;2.10;99.90;;;;;;4440333;32;20485;-67
2022/02/08 06:30:22;;;;;;;10.67;3.50;;;2.10;99.90;;;;;;4440631;32;20182;-67
2022/02/08 06:32:54;;;;;;;15.27;4.00;;;2.20;99.90;;;;;;4440507;32;20189;-68
2022/02/08 06:35:28;;;;;;;13.70;3.73;;;2.20;99.90;;;;;;4439831;32;20188;-67
2022/02/08 06:37:57;;;;;;;10.33;3.70;;;2.20;99.90;;;;;;4442149;32;20194;-68
2022/02/08 06:40:25;;;;;;;11.03;3.80;;;2.30;99.90;;;;;;4440133;32;20218;-67
2022/02/08 06:42:56;;;;;;;14.30;3.90;;;2.30;99.90;;;;;;4440085;32;20190;-67
2022/02/08 06:45:23;;;;;;;11.23;3.70;;;2.40;99.90;;;;;;4441193;32;20554;-68
2022/02/08 06:47:52;;;;;;;9.73;3.50;;;2.40;99.90;;;;;;4440470;32;20174;-67
2022/02/08 06:50:19;;;;;;;13.93;4.17;;;2.40;99.90;;;;;;4440159;32;20166;-67
2022/02/08 06:52:47;;;;;;;14.07;4.20;;;2.50;99.90;;;;;;4440763;32;20173;-67
2022/02/08 06:55:14;;;;;;;13.87;4.33;;;2.50;99.90;;;;;;4441324;32;20166;-67
2022/02/08 06:58:03;;;;;;;14.67;3.93;;;2.60;99.90;;;;;;4439151;32;20197;-67
2022/02/08 07:00:39;;;;;;;14.30;4.60;;;2.60;99.90;;;;;;4441517;32;20408;-69
2022/02/08 07:03:14;;;;;;;11.67;4.40;;;2.60;99.90;;;;;;4439835;32;20184;-68
2022/02/08 07:05:42;;;;;;;11.33;4.17;;;2.60;99.90;;;;;;4440275;32;20173;-68
2022/02/08 07:08:10;;;;;;;11.80;4.17;;;2.60;99.90;;;;;;4439186;32;20178;-68
2022/02/08 07:10:38;;;;;;;10.77;4.00;;;2.60;99.90;;;;;;4439640;32;20558;-68
2022/02/08 07:13:08;;;;;;;11.67;4.10;;;2.70;99.90;;;;;;4439359;32;20286;-68
2022/02/08 07:15:35;;;;;;;15.33;4.17;;;2.70;99.90;;;;;;4440925;32;20175;-68
2022/02/08 07:18:02;;;;;;;11.67;3.47;;;2.80;99.90;;;;;;4440428;32;20197;-68
2022/02/08 07:20:34;;;;;;;11.33;3.80;;;2.90;99.90;;;;;;4441029;32;20205;-68
2022/02/08 07:23:01;;;;;;;12.00;3.37;;;2.90;99.90;;;;;;4439190;32;20249;-68
2022/02/08 07:25:33;;;;;;;14.47;3.63;;;2.80;99.90;;;;;;4439577;32;20540;-67
2022/02/08 07:28:00;;;;;;;8.47;3.13;;;2.90;99.90;;;;;;4439543;32;20166;-67
2022/02/08 07:30:29;;;;;;;10.87;3.47;;;2.90;99.90;;;;;;4439243;32;20167;-68
2022/02/08 07:32:56;;;;;;;11.03;3.60;;;2.90;99.90;;;;;;4438801;32;20170;-68
2022/02/08 07:35:42;;;;;;;11.93;3.40;;;3.00;99.90;;;;;;4440704;32;20500;-69
2022/02/08 07:38:17;;;;;;;9.27;3.40;;;3.00;99.90;;;;;;4439361;32;20186;-68
2022/02/08 07:43:19;;;;;;;11.33;3.30;;;2.90;99.90;;;;;;4440308;32;20405;-68
2022/02/08 07:45:46;;;;;;;13.83;3.63;;;2.90;99.90;;;;;;4439936;32;20515;-68
2022/02/08 07:48:13;;;;;;;17.27;3.93;;;3.00;99.90;;;;;;4438360;32;20220;-66
2022/02/08 07:50:49;;;;;;;9.30;3.60;;;3.00;99.90;;;;;;4439892;32;20170;-68
2022/02/08 07:53:18;;;;;;;15.93;4.00;;;2.90;99.90;;;;;;4438603;32;20494;-67
2022/02/08 07:55:46;;;;;;;18.53;3.97;;;2.90;99.90;;;;;;4441758;32;20143;-67
2022/02/08 07:58:14;;;;;;;16.17;4.03;;;2.90;99.90;;;;;;4442295;32;20131;-66
2022/02/08 08:00:42;;;;;;;15.83;4.30;;;2.90;99.90;;;;;;4428543;32;20179;-67
2022/02/08 08:03:09;;;;;;;13.90;3.80;;;3.00;99.90;;;;;;4440956;32;20472;-67
2022/02/08 08:05:36;;;;;;;13.80;3.87;;;3.00;99.90;;;;;;4439426;32;20175;-67
2022/02/08 08:08:04;;;;;;;19.20;4.40;;;3.00;99.90;;;;;;4425588;32;20552;-67
2022/02/08 08:10:31;;;;;;;16.43;3.90;;;3.10;99.90;;;;;;4440313;32;20163;-67
2022/02/08 08:13:00;;;;;;;15.90;4.07;;;3.00;99.90;;;;;;4439803;32;20219;-67
2022/02/08 08:15:42;;;;;;;22.37;4.47;;;3.10;99.90;;;;;;4438558;32;20539;-67
2022/02/08 08:18:25;;;;;;;16.23;4.43;;;3.20;99.90;;;;;;4439969;32;20158;-67
2022/02/08 08:20:52;;;;;;;17.43;4.77;;;3.40;99.90;;;;;;4438238;32;20229;-67
2022/02/08 08:23:20;;;;;;;25.60;4.60;;;3.70;99.90;;;;;;4438633;32;20460;-66
2022/02/08 08:25:50;;;;;;;14.83;4.37;;;3.90;99.90;;;;;;4440046;32;20197;-66
2022/02/08 08:28:17;;;;;;;19.13;5.30;;;3.90;99.90;;;;;;4440058;32;20143;-67
2022/02/08 08:30:44;;;;;;;21.40;4.30;;;4.10;99.90;;;;;;4437886;32;20575;-68
2022/02/08 08:33:11;;;;;;;24.23;4.00;;;4.00;99.90;;;;;;4439689;32;20228;-68
2022/02/08 08:35:58;;;;;;;18.20;4.17;;;3.90;99.90;;;;;;4437507;32;20524;-68
2022/02/08 08:38:27;;;;;;;23.97;4.27;;;3.70;99.90;;;;;;4440028;32;20208;-68
2022/02/08 08:41:08;;;;;;;19.03;3.77;;;3.80;99.90;;;;;;4441020;32;20170;-69
2022/02/08 08:43:52;;;;;;;25.23;4.77;;;3.90;99.90;;;;;;4440637;32;20196;-68
2022/02/08 08:51:43;;;;;;;21.27;4.63;;;3.80;99.90;;;;;;4437831;32;20168;-68
2022/02/08 08:54:10;;;;;;;19.30;4.20;;;3.70;99.90;;;;;;4439377;32;20179;-68
2022/02/08 08:56:39;;;;;;;16.53;4.53;;;3.70;99.90;;;;;;4440621;32;20157;-68
2022/02/08 08:59:08;;;;;;;17.17;4.60;;;3.60;99.90;;;;;;4438506;32;20181;-69
2022/02/08 09:01:36;;;;;;;13.73;4.07;;;3.40;99.90;;;;;;4438546;32;20188;-68
2022/02/08 09:04:05;;;;;;;15.60;4.13;;;3.40;99.90;;;;;;4439178;32;20216;-69
2022/02/08 09:06:34;;;;;;;15.50;4.03;;;3.50;99.90;;;;;;4437501;32;20178;-68
2022/02/08 09:09:09;;;;;;;15.20;4.13;;;3.60;99.90;;;;;;4439250;32;20174;-68
2022/02/08 09:12:16;;;;;;;18.13;4.43;;;3.60;99.90;;;;;;4437589;32;20178;-68
2022/02/08 09:14:53;;;;;;;16.77;3.90;;;3.60;99.90;;;;;;4433169;32;20256;-69
2022/02/08 09:25:48;;;;;;;15.03;3.93;;;3.50;99.90;;;;;;4451026;32;20146;-68
2022/02/08 09:31:01;;;;;;;18.37;3.77;;;3.70;99.90;;;;;;4454322;32;20224;-67
2022/02/08 09:33:28;;;;;;;16.93;3.57;;;4.00;99.90;;;;;;4445800;32;20228;-68
2022/02/08 09:35:56;;;;;;;22.87;3.73;;;4.10;99.90;;;;;;4454613;32;20192;-67
2022/02/08 09:38:27;;;;;;;15.90;3.77;;;4.20;99.90;;;;;;4441457;32;20428;-67
2022/02/08 09:40:56;;;;;;;17.90;3.80;;;4.20;99.90;;;;;;4439416;32;20226;-67
2022/02/08 09:43:24;;;;;;;22.37;4.73;;;4.30;99.90;;;;;;4455074;32;20213;-66
2022/02/08 09:45:51;;;;;;;19.40;3.70;;;4.20;99.90;;;;;;4440492;32;20467;-67
2022/02/08 09:48:25;;;;;;;14.77;3.73;;;4.30;99.90;;;;;;4440590;32;20174;-67
2022/02/08 09:50:53;;;;;;;20.50;3.60;;;4.50;99.90;;;;;;4442109;32;20186;-66
2022/02/08 09:53:30;;;;;;;20.20;4.40;;;4.70;99.90;;;;;;4440012;32;20170;-67
2022/02/08 09:55:59;;;;;;;15.27;3.77;;;4.80;99.90;;;;;;4442000;32;20186;-67
2022/02/08 09:58:27;;;;;;;20.47;4.20;;;4.90;99.90;;;;;;4442271;32;20169;-67
2022/02/08 10:01:17;;;;;;;21.60;3.30;;;5.00;99.90;;;;;;4444475;32;20219;-67
2022/02/08 10:03:58;;;;;;;12.77;3.10;;;4.90;99.90;;;;;;4457362;32;20212;-66
2022/02/08 10:06:26;;;;;;;17.83;3.80;;;4.80;99.90;;;;;;4440477;32;20189;-66
2022/02/08 10:09:09;;;;;;;16.37;3.43;;;4.80;99.90;;;;;;4440005;32;20203;-67
2022/02/08 10:14:21;;;;;;;16.93;3.70;;;4.80;99.90;;;;;;4443269;32;20562;-67
2022/02/08 10:21:27;;;;;;;15.17;3.87;;;4.60;99.90;;;;;;4456919;32;20229;-67
2022/02/08 10:22:50;;;;;;;15.80;3.77;;;4.60;99.90;;;;;;4442010;32;20175;-67
2022/02/08 10:28:02;;;;;;;17.67;4.17;;;4.60;99.90;;;;;;4442551;32;20421;-66
2022/02/08 10:38:46;;;;;;;16.00;3.87;;;5.30;99.90;;;;;;4380863;32;20215;-67
2022/02/08 10:41:14;;;;;;;12.60;3.57;;;5.60;99.90;;;;;;4393973;32;20234;-66
2022/02/08 10:43:42;;;;;;;16.93;3.90;;;5.80;99.90;;;;;;4380746;32;20202;-67
2022/02/08 10:46:18;;;;;;;16.60;4.10;;;5.90;99.90;;;;;;4378708;32;20197;-67
2022/02/08 10:48:45;;;;;;;18.43;3.80;;;5.80;99.90;;;;;;4394131;32;20243;-66
2022/02/08 10:51:17;;;;;;;14.43;3.60;;;5.70;99.90;;;;;;4380438;32;20259;-66
2022/02/08 10:53:56;;;;;;;13.47;3.10;;;5.70;99.90;;;;;;4381688;32;20421;-66
2022/02/08 10:56:27;;;;;;;12.37;3.27;;;5.70;99.90;;;;;;4380669;32;20229;-66
2022/02/08 10:59:13;;;;;;;12.87;3.17;;;5.50;99.90;;;;;;4393776;32;20144;-66
2022/02/08 11:01:47;;;;;;;18.30;4.17;;;5.50;99.90;;;;;;4379842;32;20277;-66
2022/02/08 11:04:22;;;;;;;19.90;3.10;;;5.20;99.90;;;;;;4381711;32;20242;-66
2022/02/08 11:07:10;;;;;;;9.70;3.00;;;5.30;99.90;;;;;;4380756;32;20171;-67
2022/02/08 11:09:52;;;;;;;17.30;2.87;;;5.20;99.90;;;;;;4375350;32;20257;-66
2022/02/08 11:22:00;;;;;;;15.00;2.70;;;5.30;99.90;;;;;;4440446;32;20173;-66
2022/02/08 11:24:24;;;;;;;13.27;2.87;;;5.20;99.90;;;;;;4362938;32;20248;-66
2022/02/08 11:26:58;;;;;;;16.80;2.83;;;5.10;99.90;;;;;;4364802;32;20207;-66
2022/02/08 11:29:34;;;;;;;10.73;2.60;;;5.10;99.90;;;;;;4366547;32;20631;-66
2022/02/08 11:32:10;;;;;;;16.87;3.20;;;5.00;99.90;;;;;;4365362;32;20571;-66
2022/02/08 11:43:42;;;;;;;15.33;3.43;;;5.20;99.90;;;;;;4291648;33;20656;-66
2022/02/08 11:46:29;;;;;;;15.97;3.33;;;5.20;99.90;;;;;;4292914;33;20229;-67
2022/02/08 11:52:03;;;;;;;16.43;4.00;;;5.20;99.90;;;;;;4291140;33;20173;-66
2022/02/08 12:00:19;;;;;;;11.23;2.90;;;5.20;99.90;;;;;;4310187;33;20218;-67
2022/02/08 12:03:12;;;;;;;13.10;3.10;;;5.20;99.90;;;;;;4321731;33;20436;-67
2022/02/08 12:05:51;;;;;;;11.20;3.10;;;5.20;99.90;;;;;;4333159;33;20550;-67
2022/02/08 12:08:18;;;;;;;14.60;3.30;;;5.30;99.90;;;;;;4321981;33;20164;-68
2022/02/08 12:10:57;;;;;;;16.70;3.10;;;5.30;99.90;;;;;;4332191;33;20244;-68
2022/02/08 12:54:45;;;;;;;16.50;5.93;;;5.00;99.90;;;;;;4453190;32;20166;-66
2022/02/08 13:00:24;;;;;;;15.10;4.03;;;5.00;99.90;;;;;;4453206;32;20170;-67
2022/02/08 13:03:06;;;;;;;12.30;4.13;;;5.00;99.90;;;;;;4453109;32;20254;-67
2022/02/08 14:05:50;;;;;;;15.27;6.63;;;2.80;99.90;;;;;;4441051;32;20182;-66
2022/02/08 14:08:30;;;;;;;14.97;6.40;;;2.90;99.90;;;;;;4439899;32;20615;-66
2022/02/08 14:11:41;;;;;;;20.97;6.90;;;2.90;99.90;;;;;;4440675;32;20193;-66
2022/02/08 14:19:30;;;;;;;21.13;6.63;;;2.80;99.90;;;;;;4440335;32;20182;-65
2022/02/08 14:22:12;;;;;;;21.43;7.27;;;2.80;99.90;;;;;;4439795;32;20177;-66
2022/02/08 14:30:09;;;;;;;19.70;6.90;;;2.80;99.90;;;;;;4439782;32;20205;-66
2022/02/08 14:33:07;;;;;;;21.40;7.30;;;2.80;99.90;;;;;;4453996;32;20184;-66
2022/02/08 14:35:53;;;;;;;23.93;7.80;;;2.80;99.90;;;;;;4442449;32;20182;-67
2022/02/08 14:57:29;;;;;;;20.00;8.40;;;2.90;99.90;;;;;;4440600;32;20543;-65
2022/02/08 15:08:48;;;;;;;21.17;8.53;;;2.90;99.90;;;;;;4381454;32;20536;-65
2022/02/08 15:11:15;;;;;;;25.40;9.40;;;2.90;99.90;;;;;;4381386;32;20183;-65
2022/02/08 15:13:48;;;;;;;30.77;10.50;;;3.00;99.90;;;;;;4381062;32;20194;-65
2022/02/08 15:16:30;;;;;;;28.20;10.50;;;3.00;99.90;;;;;;4380761;32;20218;-66
2022/02/08 15:18:56;;;;;;;26.20;10.33;;;3.00;99.90;;;;;;4394081;32;20453;-65
2022/02/08 15:21:29;;;;;;;27.10;10.70;;;3.00;99.90;;;;;;4380254;32;20172;-65
2022/02/08 15:23:56;;;;;;;30.93;10.53;;;3.00;99.90;;;;;;4393795;32;20167;-65
2022/02/08 15:26:25;;;;;;;20.83;10.03;;;3.10;99.90;;;;;;4393337;32;20575;-65
2022/02/08 15:28:52;;;;;;;26.77;11.00;;;3.20;99.90;;;;;;4394768;32;20228;-66
2022/02/08 15:31:19;;;;;;;26.33;11.80;;;3.20;99.90;;;;;;4395332;32;20182;-65
2022/02/08 15:33:46;;;;;;;26.03;11.03;;;3.30;99.90;;;;;;4394690;32;20210;-65
2022/02/08 15:36:16;;;;;;;26.10;11.30;;;3.30;99.90;;;;;;4396137;32;20206;-65
2022/02/08 15:38:47;;;;;;;21.80;10.30;;;3.30;99.90;;;;;;4395663;32;20178;-67
2022/02/08 15:41:14;;;;;;;22.63;11.03;;;3.30;99.90;;;;;;4396243;32;20179;-66
2022/02/08 15:43:41;;;;;;;23.10;11.13;;;3.40;99.90;;;;;;4422318;32;20591;-66
2022/02/08 15:46:18;;;;;;;23.57;11.30;;;3.40;99.90;;;;;;4440853;32;20186;-66
2022/02/08 15:48:48;;;;;;;23.67;11.37;;;3.40;99.90;;;;;;4447463;32;20158;-66
2022/02/08 15:54:07;;;;;;;20.73;10.23;;;3.40;99.90;;;;;;4440300;32;20269;-66
2022/02/08 15:57:07;;;;;;;27.93;10.97;;;3.50;99.90;;;;;;4438298;32;20456;-66
2022/02/08 16:05:17;;;;;;;22.40;11.83;;;3.50;99.90;;;;;;4438347;32;20419;-66
2022/02/08 16:08:16;;;;;;;26.33;11.20;;;3.50;99.90;;;;;;4438225;32;20181;-66
2022/02/08 16:13:45;;;;;;;24.80;12.33;;;3.60;99.90;;;;;;4412833;32;20177;-66
2022/02/08 16:26:44;;;;;;;19.93;11.03;;;3.70;99.90;;;;;;4406726;32;20382;-66
2022/02/08 16:46:05;;;;;;;18.50;10.83;;;3.80;99.90;;;;;;4406997;32;20158;-66
2022/02/08 16:59:12;;;;;;;15.23;9.57;;;4.10;99.90;;;;;;4410396;32;20279;-66
2022/02/08 17:01:39;;;;;;;16.90;10.67;;;4.10;99.90;;;;;;4408457;32;20209;-65
2022/02/08 17:04:08;;;;;;;16.90;10.20;;;4.20;99.90;;;;;;4406896;32;20206;-65
2022/02/08 17:06:35;;;;;;;17.40;10.57;;;4.20;99.90;;;;;;4410917;32;20272;-66
2022/02/08 17:09:07;;;;;;;16.00;9.93;;;4.20;99.90;;;;;;4409317;32;20182;-66
2022/02/08 17:11:46;;;;;;;16.53;10.33;;;4.30;99.90;;;;;;4408304;32;20167;-66
2022/02/08 17:46:49;;;;;;;18.40;11.57;;;4.60;99.90;;;;;;4394181;32;20218;-64
2022/02/08 17:49:16;;;;;;;18.13;10.70;;;4.70;99.90;;;;;;4395298;32;20175;-65
2022/02/08 17:51:43;;;;;;;21.03;12.10;;;4.70;99.90;;;;;;4394602;32;20179;-64
2022/02/08 17:54:13;;;;;;;19.23;11.40;;;4.70;99.90;;;;;;4393078;32;20267;-64
2022/02/08 17:56:40;;;;;;;19.40;11.93;;;4.70;99.90;;;;;;4393421;32;20224;-64
2022/02/08 17:59:08;;;;;;;18.23;11.47;;;4.70;99.90;;;;;;4413589;32;20217;-65
2022/02/08 18:01:35;;;;;;;19.27;12.03;;;4.80;99.90;;;;;;4438606;32;20200;-65
2022/02/08 18:04:02;;;;;;;20.50;11.77;;;4.80;99.90;;;;;;4437471;32;20461;-65
2022/02/08 18:06:29;;;;;;;21.67;12.60;;;4.80;99.90;;;;;;4438761;32;20209;-65
2022/02/08 18:08:56;;;;;;;21.67;12.30;;;4.90;99.90;;;;;;4439719;32;20169;-65
2022/02/08 18:11:28;;;;;;;21.80;12.93;;;4.90;99.90;;;;;;4441025;32;20190;-65
2022/02/08 18:13:55;;;;;;;23.00;13.30;;;4.90;99.90;;;;;;4439945;32;20182;-65
2022/02/08 18:16:24;;;;;;;25.30;13.27;;;4.90;99.90;;;;;;4441412;32;20193;-65
2022/02/08 18:18:51;;;;;;;24.23;13.63;;;4.90;99.90;;;;;;4445895;32;20174;-65
2022/02/08 18:21:24;;;;;;;24.17;14.37;;;5.00;99.90;;;;;;4456871;32;20172;-65
2022/02/08 18:27:22;;;;;;;24.77;13.97;;;5.00;99.90;;;;;;4439885;32;20209;-65
2022/02/08 18:57:09;;;;;;;29.40;17.00;;;5.20;99.90;;;;;;4408372;32;20147;-65
2022/02/08 19:12:56;;;;;;;27.13;15.63;;;5.40;99.90;;;;;;4409398;32;20169;-65
2022/02/08 19:15:41;;;;;;;29.83;16.80;;;5.40;99.90;;;;;;4395740;32;20172;-65
2022/02/08 19:18:31;;;;;;;28.17;15.83;;;5.50;99.90;;;;;;4396501;32;20283;-65
2022/02/08 19:23:35;;;;;;;27.80;15.90;;;5.50;99.90;;;;;;4396189;32;20365;-65
2022/02/08 19:26:05;;;;;;;26.53;15.70;;;5.50;99.90;;;;;;4395632;32;20176;-66
2022/02/08 19:28:35;;;;;;;25.50;15.67;;;5.60;99.90;;;;;;4414120;32;20174;-65
2022/02/08 19:31:02;;;;;;;24.57;15.07;;;5.60;99.90;;;;;;4438778;32;20175;-65
2022/02/08 19:33:29;;;;;;;24.30;15.17;;;5.60;99.90;;;;;;4439591;32;20194;-65
2022/02/08 19:35:56;;;;;;;28.30;15.37;;;5.60;99.90;;;;;;4439708;32;20252;-65
2022/02/08 19:38:26;;;;;;;25.93;14.90;;;5.60;99.90;;;;;;4438887;32;20226;-65
2022/02/08 19:40:54;;;;;;;24.33;14.27;;;5.70;99.90;;;;;;4439504;32;20205;-65
2022/02/08 19:43:22;;;;;;;23.60;13.80;;;5.70;99.90;;;;;;4395154;32;20166;-66
2022/02/08 19:45:49;;;;;;;24.97;14.57;;;5.70;99.90;;;;;;4395862;32;20254;-66
2022/02/08 19:48:16;;;;;;;23.57;13.30;;;5.70;99.90;;;;;;4395988;32;20187;-65
2022/02/08 19:50:49;;;;;;;23.70;13.90;;;5.70;99.90;;;;;;4407088;32;20158;-65
2022/02/08 19:53:16;;;;;;;20.43;13.13;;;5.80;99.90;;;;;;4398187;32;20225;-65
2022/02/08 19:55:56;;;;;;;22.00;13.17;;;5.80;99.90;;;;;;4409571;32;20265;-65
2022/02/08 19:58:27;;;;;;;22.67;12.93;;;5.80;99.90;;;;;;4410367;32;20178;-65
2022/02/08 20:03:42;;;;;;;23.07;13.13;;;5.80;99.90;;;;;;4453948;32;20188;-65
2022/02/08 20:06:09;;;;;;;21.57;12.50;;;5.80;99.90;;;;;;4455002;32;20266;-65
2022/02/08 20:08:36;;;;;;;19.43;12.33;;;5.80;99.90;;;;;;4454146;32;20233;-65
2022/02/08 20:11:04;;;;;;;20.97;12.43;;;5.80;99.90;;;;;;4454193;32;20227;-65
2022/02/08 20:13:31;;;;;;;19.27;11.60;;;5.90;99.90;;;;;;4453912;32;20181;-65
2022/02/08 20:15:58;;;;;;;19.13;12.27;;;5.90;99.90;;;;;;4442015;32;20253;-65
2022/02/08 20:18:26;;;;;;;20.87;11.83;;;5.90;99.90;;;;;;4455640;32;20144;-65
2022/02/08 20:20:54;;;;;;;18.43;11.17;;;5.90;99.90;;;;;;4456960;32;20197;-65
2022/02/08 20:23:22;;;;;;;17.37;10.37;;;5.90;99.90;;;;;;4447063;32;20171;-65
2022/02/08 20:25:53;;;;;;;15.97;10.37;;;6.00;99.90;;;;;;4440610;32;20203;-65